sensor_id;sensor_type;location;lat;lon;timestamp;temperature;humidity
26964;DHT22;14521;48.148;-1.656;2023-08-06T00:01:12;22.60;90.10
26964;DHT22;14521;48.148;-1.656;2023-08-06T00:04:34;22.60;90.00
26964;DHT22;14521;48.148;-1.656;2023-08-06T00:07:57;22.60;90.30
26964;DHT22;14521;48.148;-1.656;2023-08-06T00:11:19;22.60;89.90
26964;DHT22;14521;48.148;-1.656;2023-08-06T00:14:41;22.60;89.80
26964;DHT22;14521;48.148;-1.656;2023-08-06T00:18:04;22.60;90.50
26964;DHT22;14521;48.148;-1.656;2023-08-06T00:21:27;22.60;90.40
26964;DHT22;14521;48.148;-1.656;2023-08-06T00:24:49;22.60;90.10
26964;DHT22;14521;48.148;-1.656;2023-08-06T00:28:11;22.50;90.00
26964;DHT22;14521;48.148;-1.656;2023-08-06T00:31:33;22.60;90.10
26964;DHT22;14521;48.148;-1.656;2023-08-06T00:34:57;22.60;90.20
26964;DHT22;14521;48.148;-1.656;2023-08-06T00:38:19;22.60;90.40
26964;DHT22;14521;48.148;-1.656;2023-08-06T00:41:42;22.50;90.40
26964;DHT22;14521;48.148;-1.656;2023-08-06T00:45:05;22.50;90.30
26964;DHT22;14521;48.148;-1.656;2023-08-06T00:48:27;22.50;90.20
26964;DHT22;14521;48.148;-1.656;2023-08-06T00:51:50;22.50;90.20
26964;DHT22;14521;48.148;-1.656;2023-08-06T00:55:13;22.50;90.30
26964;DHT22;14521;48.148;-1.656;2023-08-06T00:58:36;22.50;90.30
26964;DHT22;14521;48.148;-1.656;2023-08-06T01:01:58;22.50;90.40
26964;DHT22;14521;48.148;-1.656;2023-08-06T01:05:21;22.50;90.40
26964;DHT22;14521;48.148;-1.656;2023-08-06T01:08:49;22.50;90.20
26964;DHT22;14521;48.148;-1.656;2023-08-06T01:12:42;22.50;90.40
26964;DHT22;14521;48.148;-1.656;2023-08-06T01:16:06;22.50;90.40
26964;DHT22;14521;48.148;-1.656;2023-08-06T01:19:29;22.50;90.50
26964;DHT22;14521;48.148;-1.656;2023-08-06T01:22:51;22.50;90.40
26964;DHT22;14521;48.148;-1.656;2023-08-06T01:30:22;22.50;90.40
26964;DHT22;14521;48.148;-1.656;2023-08-06T01:33:46;22.50;90.40
26964;DHT22;14521;48.148;-1.656;2023-08-06T01:37:10;22.50;90.40
26964;DHT22;14521;48.148;-1.656;2023-08-06T01:40:32;22.50;90.50
26964;DHT22;14521;48.148;-1.656;2023-08-06T01:43:56;22.50;90.30
26964;DHT22;14521;48.148;-1.656;2023-08-06T01:47:18;22.50;90.40
26964;DHT22;14521;48.148;-1.656;2023-08-06T01:50:40;22.50;90.30
26964;DHT22;14521;48.148;-1.656;2023-08-06T01:54:03;22.50;90.20
26964;DHT22;14521;48.148;-1.656;2023-08-06T01:57:25;22.40;90.40
26964;DHT22;14521;48.148;-1.656;2023-08-06T02:00:47;22.50;90.40
26964;DHT22;14521;48.148;-1.656;2023-08-06T02:04:10;22.40;90.40
26964;DHT22;14521;48.148;-1.656;2023-08-06T02:07:32;22.50;90.40
26964;DHT22;14521;48.148;-1.656;2023-08-06T02:10:54;22.50;90.40
26964;DHT22;14521;48.148;-1.656;2023-08-06T02:14:35;22.40;90.30
26964;DHT22;14521;48.148;-1.656;2023-08-06T02:17:57;22.50;90.20
26964;DHT22;14521;48.148;-1.656;2023-08-06T02:21:20;22.50;90.40
26964;DHT22;14521;48.148;-1.656;2023-08-06T02:24:42;22.40;90.30
26964;DHT22;14521;48.148;-1.656;2023-08-06T02:28:05;22.40;90.60
26964;DHT22;14521;48.148;-1.656;2023-08-06T02:31:27;22.40;90.30
26964;DHT22;14521;48.148;-1.656;2023-08-06T02:34:49;22.40;90.20
26964;DHT22;14521;48.148;-1.656;2023-08-06T02:38:12;22.40;90.40
26964;DHT22;14521;48.148;-1.656;2023-08-06T02:41:35;22.40;90.40
26964;DHT22;14521;48.148;-1.656;2023-08-06T02:44:58;22.40;90.60
26964;DHT22;14521;48.148;-1.656;2023-08-06T02:48:20;22.40;90.30
26964;DHT22;14521;48.148;-1.656;2023-08-06T02:51:45;22.40;90.30
26964;DHT22;14521;48.148;-1.656;2023-08-06T02:55:07;22.40;90.30
26964;DHT22;14521;48.148;-1.656;2023-08-06T02:58:34;22.30;90.30
26964;DHT22;14521;48.148;-1.656;2023-08-06T03:02:12;22.40;90.20
26964;DHT22;14521;48.148;-1.656;2023-08-06T03:05:54;22.40;90.10
26964;DHT22;14521;48.148;-1.656;2023-08-06T03:09:27;22.40;90.20
26964;DHT22;14521;48.148;-1.656;2023-08-06T03:12:51;22.30;90.30
26964;DHT22;14521;48.148;-1.656;2023-08-06T03:16:14;22.40;90.30
26964;DHT22;14521;48.148;-1.656;2023-08-06T03:19:37;22.30;90.30
26964;DHT22;14521;48.148;-1.656;2023-08-06T03:23:00;22.40;90.30
26964;DHT22;14521;48.148;-1.656;2023-08-06T03:26:24;22.30;90.10
26964;DHT22;14521;48.148;-1.656;2023-08-06T03:29:49;22.30;90.20
26964;DHT22;14521;48.148;-1.656;2023-08-06T03:33:14;22.30;90.30
26964;DHT22;14521;48.148;-1.656;2023-08-06T03:36:38;22.30;90.30
26964;DHT22;14521;48.148;-1.656;2023-08-06T03:40:01;22.30;90.30
26964;DHT22;14521;48.148;-1.656;2023-08-06T03:43:25;22.30;90.20
26964;DHT22;14521;48.148;-1.656;2023-08-06T03:46:50;22.30;90.20
26964;DHT22;14521;48.148;-1.656;2023-08-06T03:50:12;22.30;90.10
26964;DHT22;14521;48.148;-1.656;2023-08-06T03:53:35;22.30;90.20
26964;DHT22;14521;48.148;-1.656;2023-08-06T03:56:57;22.30;90.20
26964;DHT22;14521;48.148;-1.656;2023-08-06T04:00:19;22.30;90.10
26964;DHT22;14521;48.148;-1.656;2023-08-06T04:03:47;22.30;90.20
26964;DHT22;14521;48.148;-1.656;2023-08-06T04:07:10;22.30;90.50
26964;DHT22;14521;48.148;-1.656;2023-08-06T04:10:32;22.30;90.30
26964;DHT22;14521;48.148;-1.656;2023-08-06T04:13:55;22.30;90.20
26964;DHT22;14521;48.148;-1.656;2023-08-06T04:17:19;22.30;90.20
26964;DHT22;14521;48.148;-1.656;2023-08-06T04:20:43;22.30;90.30
26964;DHT22;14521;48.148;-1.656;2023-08-06T04:24:06;22.30;90.30
26964;DHT22;14521;48.148;-1.656;2023-08-06T04:27:28;22.30;90.30
26964;DHT22;14521;48.148;-1.656;2023-08-06T04:30:51;22.30;90.20
26964;DHT22;14521;48.148;-1.656;2023-08-06T04:34:15;22.30;90.30
26964;DHT22;14521;48.148;-1.656;2023-08-06T04:37:38;22.30;90.20
26964;DHT22;14521;48.148;-1.656;2023-08-06T04:41:02;22.30;90.30
26964;DHT22;14521;48.148;-1.656;2023-08-06T04:44:26;22.30;90.30
26964;DHT22;14521;48.148;-1.656;2023-08-06T04:47:48;22.30;90.40
26964;DHT22;14521;48.148;-1.656;2023-08-06T04:51:10;22.30;90.50
26964;DHT22;14521;48.148;-1.656;2023-08-06T04:54:33;22.20;90.40
26964;DHT22;14521;48.148;-1.656;2023-08-06T04:57:56;22.20;90.50
26964;DHT22;14521;48.148;-1.656;2023-08-06T05:01:18;22.20;90.30
26964;DHT22;14521;48.148;-1.656;2023-08-06T05:04:40;22.30;90.50
26964;DHT22;14521;48.148;-1.656;2023-08-06T05:08:03;22.30;90.40
26964;DHT22;14521;48.148;-1.656;2023-08-06T05:11:25;22.20;90.30
26964;DHT22;14521;48.148;-1.656;2023-08-06T05:14:47;22.30;90.40
26964;DHT22;14521;48.148;-1.656;2023-08-06T05:18:09;22.30;90.50
26964;DHT22;14521;48.148;-1.656;2023-08-06T05:21:32;22.20;90.50
26964;DHT22;14521;48.148;-1.656;2023-08-06T05:24:54;22.20;90.60
26964;DHT22;14521;48.148;-1.656;2023-08-06T05:28:17;22.20;90.50
26964;DHT22;14521;48.148;-1.656;2023-08-06T05:31:39;22.30;90.50
26964;DHT22;14521;48.148;-1.656;2023-08-06T05:35:01;22.30;90.40
26964;DHT22;14521;48.148;-1.656;2023-08-06T05:38:24;22.30;90.40
26964;DHT22;14521;48.148;-1.656;2023-08-06T05:41:47;22.20;90.30
26964;DHT22;14521;48.148;-1.656;2023-08-06T05:45:09;22.30;90.50
26964;DHT22;14521;48.148;-1.656;2023-08-06T05:48:32;22.30;88.90
26964;DHT22;14521;48.148;-1.656;2023-08-06T05:51:54;22.30;90.70
26964;DHT22;14521;48.148;-1.656;2023-08-06T05:55:16;22.30;91.10
26964;DHT22;14521;48.148;-1.656;2023-08-06T05:58:39;22.30;91.00
26964;DHT22;14521;48.148;-1.656;2023-08-06T06:02:01;22.30;90.90
26964;DHT22;14521;48.148;-1.656;2023-08-06T06:05:24;22.30;90.80
26964;DHT22;14521;48.148;-1.656;2023-08-06T06:08:46;22.30;91.10
26964;DHT22;14521;48.148;-1.656;2023-08-06T06:12:08;22.30;90.00
26964;DHT22;14521;48.148;-1.656;2023-08-06T06:15:30;22.40;91.20
26964;DHT22;14521;48.148;-1.656;2023-08-06T06:18:53;22.50;91.40
26964;DHT22;14521;48.148;-1.656;2023-08-06T06:22:16;22.50;91.30
26964;DHT22;14521;48.148;-1.656;2023-08-06T06:25:43;22.60;91.80
26964;DHT22;14521;48.148;-1.656;2023-08-06T06:29:05;22.60;91.50
26964;DHT22;14521;48.148;-1.656;2023-08-06T06:32:29;22.60;91.60
26964;DHT22;14521;48.148;-1.656;2023-08-06T06:35:52;22.70;91.40
26964;DHT22;14521;48.148;-1.656;2023-08-06T06:39:16;22.70;91.60
26964;DHT22;14521;48.148;-1.656;2023-08-06T06:42:38;22.70;91.40
26964;DHT22;14521;48.148;-1.656;2023-08-06T06:46:02;22.80;91.40
26964;DHT22;14521;48.148;-1.656;2023-08-06T06:49:25;22.80;91.70
26964;DHT22;14521;48.148;-1.656;2023-08-06T06:52:47;22.80;91.90
26964;DHT22;14521;48.148;-1.656;2023-08-06T06:56:09;22.90;91.80
26964;DHT22;14521;48.148;-1.656;2023-08-06T06:59:32;22.90;91.40
26964;DHT22;14521;48.148;-1.656;2023-08-06T07:02:54;22.90;91.60
26964;DHT22;14521;48.148;-1.656;2023-08-06T07:06:16;22.90;92.00
26964;DHT22;14521;48.148;-1.656;2023-08-06T07:09:40;22.80;90.10
26964;DHT22;14521;48.148;-1.656;2023-08-06T07:13:02;22.60;90.60
26964;DHT22;14521;48.148;-1.656;2023-08-06T07:16:25;22.60;90.40
26964;DHT22;14521;48.148;-1.656;2023-08-06T07:19:47;22.50;90.40
26964;DHT22;14521;48.148;-1.656;2023-08-06T07:23:10;22.40;90.30
26964;DHT22;14521;48.148;-1.656;2023-08-06T07:26:32;22.50;91.30
26964;DHT22;14521;48.148;-1.656;2023-08-06T07:29:54;22.60;90.60
26964;DHT22;14521;48.148;-1.656;2023-08-06T07:33:16;22.60;91.00
26964;DHT22;14521;48.148;-1.656;2023-08-06T07:36:39;22.70;91.60
26964;DHT22;14521;48.148;-1.656;2023-08-06T07:40:01;22.70;91.40
26964;DHT22;14521;48.148;-1.656;2023-08-06T07:43:24;22.60;91.40
26964;DHT22;14521;48.148;-1.656;2023-08-06T07:46:46;22.60;91.50
26964;DHT22;14521;48.148;-1.656;2023-08-06T07:50:09;22.80;91.30
26964;DHT22;14521;48.148;-1.656;2023-08-06T07:53:31;22.80;90.80
26964;DHT22;14521;48.148;-1.656;2023-08-06T07:56:54;22.50;91.00
26964;DHT22;14521;48.148;-1.656;2023-08-06T08:00:35;22.30;90.80
26964;DHT22;14521;48.148;-1.656;2023-08-06T08:03:57;22.20;91.20
26964;DHT22;14521;48.148;-1.656;2023-08-06T08:07:20;22.10;91.10
26964;DHT22;14521;48.148;-1.656;2023-08-06T08:10:42;22.10;91.40
26964;DHT22;14521;48.148;-1.656;2023-08-06T08:14:05;22.30;91.70
26964;DHT22;14521;48.148;-1.656;2023-08-06T08:17:27;22.50;91.60
26964;DHT22;14521;48.148;-1.656;2023-08-06T08:20:49;22.60;91.40
26964;DHT22;14521;48.148;-1.656;2023-08-06T08:24:12;22.70;91.00
26964;DHT22;14521;48.148;-1.656;2023-08-06T08:27:34;22.80;91.20
26964;DHT22;14521;48.148;-1.656;2023-08-06T08:30:56;22.80;91.30
26964;DHT22;14521;48.148;-1.656;2023-08-06T08:34:37;22.70;90.60
26964;DHT22;14521;48.148;-1.656;2023-08-06T08:37:59;22.60;90.90
26964;DHT22;14521;48.148;-1.656;2023-08-06T08:41:21;22.30;91.00
26964;DHT22;14521;48.148;-1.656;2023-08-06T08:44:44;22.30;91.20
26964;DHT22;14521;48.148;-1.656;2023-08-06T08:48:06;22.30;91.10
26964;DHT22;14521;48.148;-1.656;2023-08-06T08:51:29;22.20;91.10
26964;DHT22;14521;48.148;-1.656;2023-08-06T08:54:53;22.20;91.20
26964;DHT22;14521;48.148;-1.656;2023-08-06T08:58:15;22.20;91.20
26964;DHT22;14521;48.148;-1.656;2023-08-06T09:01:39;22.10;91.20
26964;DHT22;14521;48.148;-1.656;2023-08-06T09:05:03;22.10;90.90
26964;DHT22;14521;48.148;-1.656;2023-08-06T09:08:34;22.10;90.90
26964;DHT22;14521;48.148;-1.656;2023-08-06T09:12:00;22.10;90.60
26964;DHT22;14521;48.148;-1.656;2023-08-06T09:15:27;22.10;90.60
26964;DHT22;14521;48.148;-1.656;2023-08-06T09:18:49;22.00;90.70
26964;DHT22;14521;48.148;-1.656;2023-08-06T09:22:12;22.00;90.60
26964;DHT22;14521;48.148;-1.656;2023-08-06T09:25:38;22.00;90.00
26964;DHT22;14521;48.148;-1.656;2023-08-06T09:29:07;22.00;90.30
26964;DHT22;14521;48.148;-1.656;2023-08-06T09:32:46;22.10;91.00
26964;DHT22;14521;48.148;-1.656;2023-08-06T09:36:12;22.10;90.70
26964;DHT22;14521;48.148;-1.656;2023-08-06T09:39:34;22.20;90.70
26964;DHT22;14521;48.148;-1.656;2023-08-06T09:42:57;22.10;90.60
26964;DHT22;14521;48.148;-1.656;2023-08-06T09:46:20;22.10;90.90
26964;DHT22;14521;48.148;-1.656;2023-08-06T09:49:44;22.20;91.30
26964;DHT22;14521;48.148;-1.656;2023-08-06T09:53:08;22.20;90.60
26964;DHT22;14521;48.148;-1.656;2023-08-06T09:56:31;22.20;90.20
26964;DHT22;14521;48.148;-1.656;2023-08-06T09:59:59;22.10;89.40
26964;DHT22;14521;48.148;-1.656;2023-08-06T10:03:22;22.00;88.40
26964;DHT22;14521;48.148;-1.656;2023-08-06T10:06:48;22.00;88.80
26964;DHT22;14521;48.148;-1.656;2023-08-06T10:10:11;22.10;89.30
26964;DHT22;14521;48.148;-1.656;2023-08-06T10:13:33;22.20;89.80
26964;DHT22;14521;48.148;-1.656;2023-08-06T10:16:57;22.20;88.50
26964;DHT22;14521;48.148;-1.656;2023-08-06T10:20:20;22.20;88.50
26964;DHT22;14521;48.148;-1.656;2023-08-06T10:23:44;22.30;87.90
26964;DHT22;14521;48.148;-1.656;2023-08-06T10:27:28;22.30;87.10
26964;DHT22;14521;48.148;-1.656;2023-08-06T10:30:52;22.20;87.30
26964;DHT22;14521;48.148;-1.656;2023-08-06T10:34:16;22.20;88.00
26964;DHT22;14521;48.148;-1.656;2023-08-06T10:37:45;22.30;88.30
26964;DHT22;14521;48.148;-1.656;2023-08-06T10:41:07;22.30;87.90
26964;DHT22;14521;48.148;-1.656;2023-08-06T10:44:29;22.40;88.30
26964;DHT22;14521;48.148;-1.656;2023-08-06T10:47:54;22.40;87.40
26964;DHT22;14521;48.148;-1.656;2023-08-06T10:51:17;22.40;87.40
26964;DHT22;14521;48.148;-1.656;2023-08-06T10:54:40;22.50;88.70
26964;DHT22;14521;48.148;-1.656;2023-08-06T10:58:02;22.50;88.10
26964;DHT22;14521;48.148;-1.656;2023-08-06T11:01:28;22.50;88.00
26964;DHT22;14521;48.148;-1.656;2023-08-06T11:04:52;22.50;88.10
26964;DHT22;14521;48.148;-1.656;2023-08-06T11:08:26;22.50;88.00
26964;DHT22;14521;48.148;-1.656;2023-08-06T11:11:49;22.30;88.80
26964;DHT22;14521;48.148;-1.656;2023-08-06T11:15:11;22.20;90.00
26964;DHT22;14521;48.148;-1.656;2023-08-06T11:18:34;22.30;90.60
26964;DHT22;14521;48.148;-1.656;2023-08-06T11:21:56;22.20;89.60
26964;DHT22;14521;48.148;-1.656;2023-08-06T11:25:20;22.10;88.60
26964;DHT22;14521;48.148;-1.656;2023-08-06T11:28:43;22.30;88.60
26964;DHT22;14521;48.148;-1.656;2023-08-06T11:32:06;22.30;87.80
26964;DHT22;14521;48.148;-1.656;2023-08-06T11:35:28;22.30;88.00
26964;DHT22;14521;48.148;-1.656;2023-08-06T11:38:51;22.30;87.80
26964;DHT22;14521;48.148;-1.656;2023-08-06T11:42:13;22.20;87.70
26964;DHT22;14521;48.148;-1.656;2023-08-06T11:45:36;22.20;87.80
26964;DHT22;14521;48.148;-1.656;2023-08-06T11:48:58;22.20;88.00
26964;DHT22;14521;48.148;-1.656;2023-08-06T11:52:23;22.30;88.40
26964;DHT22;14521;48.148;-1.656;2023-08-06T11:55:45;22.30;88.40
26964;DHT22;14521;48.148;-1.656;2023-08-06T11:59:08;22.40;88.20
26964;DHT22;14521;48.148;-1.656;2023-08-06T12:02:32;22.40;87.40
26964;DHT22;14521;48.148;-1.656;2023-08-06T12:05:59;22.50;88.00
26964;DHT22;14521;48.148;-1.656;2023-08-06T12:09:21;22.50;88.10
26964;DHT22;14521;48.148;-1.656;2023-08-06T12:12:43;22.50;87.90
26964;DHT22;14521;48.148;-1.656;2023-08-06T12:16:06;22.50;87.40
26964;DHT22;14521;48.148;-1.656;2023-08-06T12:19:28;22.50;86.70
26964;DHT22;14521;48.148;-1.656;2023-08-06T12:22:52;22.70;89.20
26964;DHT22;14521;48.148;-1.656;2023-08-06T12:26:14;22.60;89.10
26964;DHT22;14521;48.148;-1.656;2023-08-06T12:29:47;22.60;87.50
26964;DHT22;14521;48.148;-1.656;2023-08-06T12:33:10;22.60;88.80
26964;DHT22;14521;48.148;-1.656;2023-08-06T12:36:32;22.60;87.80
26964;DHT22;14521;48.148;-1.656;2023-08-06T12:39:54;22.60;87.40
26964;DHT22;14521;48.148;-1.656;2023-08-06T12:43:16;22.60;88.30
26964;DHT22;14521;48.148;-1.656;2023-08-06T12:46:38;22.60;86.60
26964;DHT22;14521;48.148;-1.656;2023-08-06T12:50:01;22.60;85.70
26964;DHT22;14521;48.148;-1.656;2023-08-06T12:53:23;22.60;85.70
26964;DHT22;14521;48.148;-1.656;2023-08-06T12:56:46;22.60;85.70
26964;DHT22;14521;48.148;-1.656;2023-08-06T13:00:09;22.70;87.60
26964;DHT22;14521;48.148;-1.656;2023-08-06T13:03:31;22.60;90.80
26964;DHT22;14521;48.148;-1.656;2023-08-06T13:06:55;22.60;87.80
26964;DHT22;14521;48.148;-1.656;2023-08-06T13:10:17;22.60;88.70
26964;DHT22;14521;48.148;-1.656;2023-08-06T13:13:40;22.60;88.00
26964;DHT22;14521;48.148;-1.656;2023-08-06T13:17:02;22.60;86.00
26964;DHT22;14521;48.148;-1.656;2023-08-06T13:20:24;22.50;85.10
26964;DHT22;14521;48.148;-1.656;2023-08-06T13:23:46;22.50;85.20
26964;DHT22;14521;48.148;-1.656;2023-08-06T13:27:09;22.50;84.40
26964;DHT22;14521;48.148;-1.656;2023-08-06T13:30:32;22.40;84.30
26964;DHT22;14521;48.148;-1.656;2023-08-06T13:33:55;22.40;84.00
26964;DHT22;14521;48.148;-1.656;2023-08-06T13:37:20;22.40;83.90
26964;DHT22;14521;48.148;-1.656;2023-08-06T13:40:42;22.40;83.90
26964;DHT22;14521;48.148;-1.656;2023-08-06T13:44:06;22.40;85.70
26964;DHT22;14521;48.148;-1.656;2023-08-06T13:47:28;22.50;84.80
26964;DHT22;14521;48.148;-1.656;2023-08-06T13:50:51;22.50;84.80
26964;DHT22;14521;48.148;-1.656;2023-08-06T13:54:13;22.50;85.60
26964;DHT22;14521;48.148;-1.656;2023-08-06T13:57:36;22.50;84.70
26964;DHT22;14521;48.148;-1.656;2023-08-06T14:00:58;22.50;83.30
26964;DHT22;14521;48.148;-1.656;2023-08-06T14:04:20;22.60;84.80
26964;DHT22;14521;48.148;-1.656;2023-08-06T14:07:43;22.50;83.90
26964;DHT22;14521;48.148;-1.656;2023-08-06T14:11:05;22.50;84.80
26964;DHT22;14521;48.148;-1.656;2023-08-06T14:14:28;22.50;84.30
26964;DHT22;14521;48.148;-1.656;2023-08-06T14:17:51;22.50;83.30
26964;DHT22;14521;48.148;-1.656;2023-08-06T14:21:13;22.50;83.30
26964;DHT22;14521;48.148;-1.656;2023-08-06T14:24:37;22.60;84.30
26964;DHT22;14521;48.148;-1.656;2023-08-06T14:27:59;22.60;85.00
26964;DHT22;14521;48.148;-1.656;2023-08-06T14:31:22;22.60;86.50
26964;DHT22;14521;48.148;-1.656;2023-08-06T14:34:44;22.50;84.70
26964;DHT22;14521;48.148;-1.656;2023-08-06T14:38:07;22.50;85.40
26964;DHT22;14521;48.148;-1.656;2023-08-06T14:41:29;22.50;86.40
26964;DHT22;14521;48.148;-1.656;2023-08-06T14:44:51;22.60;85.70
26964;DHT22;14521;48.148;-1.656;2023-08-06T14:48:14;22.50;85.10
26964;DHT22;14521;48.148;-1.656;2023-08-06T14:51:36;22.50;83.30
26964;DHT22;14521;48.148;-1.656;2023-08-06T14:55:00;22.60;84.20
26964;DHT22;14521;48.148;-1.656;2023-08-06T14:58:24;22.50;84.40
26964;DHT22;14521;48.148;-1.656;2023-08-06T15:01:46;22.50;83.70
26964;DHT22;14521;48.148;-1.656;2023-08-06T15:05:08;22.60;82.40
26964;DHT22;14521;48.148;-1.656;2023-08-06T15:08:31;22.50;83.30
26964;DHT22;14521;48.148;-1.656;2023-08-06T15:11:53;22.60;83.80
26964;DHT22;14521;48.148;-1.656;2023-08-06T15:15:15;22.60;82.50
26964;DHT22;14521;48.148;-1.656;2023-08-06T15:18:37;22.50;81.50
26964;DHT22;14521;48.148;-1.656;2023-08-06T15:22:00;22.60;82.10
26964;DHT22;14521;48.148;-1.656;2023-08-06T15:25:22;22.60;82.20
26964;DHT22;14521;48.148;-1.656;2023-08-06T15:28:44;22.60;81.40
26964;DHT22;14521;48.148;-1.656;2023-08-06T15:32:07;22.50;80.80
26964;DHT22;14521;48.148;-1.656;2023-08-06T15:35:29;22.50;80.70
26964;DHT22;14521;48.148;-1.656;2023-08-06T15:38:51;22.50;80.90
26964;DHT22;14521;48.148;-1.656;2023-08-06T15:42:13;22.50;80.70
26964;DHT22;14521;48.148;-1.656;2023-08-06T15:45:37;22.50;80.70
26964;DHT22;14521;48.148;-1.656;2023-08-06T15:48:59;22.50;80.30
26964;DHT22;14521;48.148;-1.656;2023-08-06T15:52:21;22.50;80.10
26964;DHT22;14521;48.148;-1.656;2023-08-06T15:55:46;22.50;80.00
26964;DHT22;14521;48.148;-1.656;2023-08-06T15:59:31;22.50;80.20
26964;DHT22;14521;48.148;-1.656;2023-08-06T16:02:53;22.50;80.70
26964;DHT22;14521;48.148;-1.656;2023-08-06T16:06:16;22.50;80.20
26964;DHT22;14521;48.148;-1.656;2023-08-06T16:09:38;22.50;80.00
26964;DHT22;14521;48.148;-1.656;2023-08-06T16:13:00;22.50;80.30
26964;DHT22;14521;48.148;-1.656;2023-08-06T16:16:22;22.50;80.70
26964;DHT22;14521;48.148;-1.656;2023-08-06T16:19:45;22.50;80.20
26964;DHT22;14521;48.148;-1.656;2023-08-06T16:23:07;22.50;80.20
26964;DHT22;14521;48.148;-1.656;2023-08-06T16:26:30;22.40;80.50
26964;DHT22;14521;48.148;-1.656;2023-08-06T16:29:53;22.50;81.70
26964;DHT22;14521;48.148;-1.656;2023-08-06T16:33:15;22.50;82.00
26964;DHT22;14521;48.148;-1.656;2023-08-06T16:36:37;22.60;83.20
26964;DHT22;14521;48.148;-1.656;2023-08-06T16:39:59;22.80;83.40
26964;DHT22;14521;48.148;-1.656;2023-08-06T16:43:25;23.00;82.90
26964;DHT22;14521;48.148;-1.656;2023-08-06T16:46:47;23.10;82.80
26964;DHT22;14521;48.148;-1.656;2023-08-06T16:50:10;22.90;81.20
26964;DHT22;14521;48.148;-1.656;2023-08-06T16:53:33;22.80;81.00
26964;DHT22;14521;48.148;-1.656;2023-08-06T16:56:55;22.70;81.10
26964;DHT22;14521;48.148;-1.656;2023-08-06T17:00:18;22.60;80.60
26964;DHT22;14521;48.148;-1.656;2023-08-06T17:03:41;22.50;80.50
26964;DHT22;14521;48.148;-1.656;2023-08-06T17:07:03;22.60;80.80
26964;DHT22;14521;48.148;-1.656;2023-08-06T17:10:26;22.60;80.90
26964;DHT22;14521;48.148;-1.656;2023-08-06T17:13:48;22.60;80.80
26964;DHT22;14521;48.148;-1.656;2023-08-06T17:17:10;22.60;79.60
26964;DHT22;14521;48.148;-1.656;2023-08-06T17:20:32;22.50;79.80
26964;DHT22;14521;48.148;-1.656;2023-08-06T17:23:56;22.50;79.40
26964;DHT22;14521;48.148;-1.656;2023-08-06T17:27:18;22.50;79.90
26964;DHT22;14521;48.148;-1.656;2023-08-06T17:30:41;22.50;80.70
26964;DHT22;14521;48.148;-1.656;2023-08-06T17:34:04;22.40;80.40
26964;DHT22;14521;48.148;-1.656;2023-08-06T17:37:26;22.40;81.00
26964;DHT22;14521;48.148;-1.656;2023-08-06T17:40:55;22.40;80.60
26964;DHT22;14521;48.148;-1.656;2023-08-06T17:44:19;22.30;80.00
26964;DHT22;14521;48.148;-1.656;2023-08-06T17:47:41;22.30;80.00
26964;DHT22;14521;48.148;-1.656;2023-08-06T17:51:06;22.30;80.20
26964;DHT22;14521;48.148;-1.656;2023-08-06T17:54:28;22.30;80.40
26964;DHT22;14521;48.148;-1.656;2023-08-06T17:57:51;22.30;80.30
26964;DHT22;14521;48.148;-1.656;2023-08-06T18:01:13;22.20;80.50
26964;DHT22;14521;48.148;-1.656;2023-08-06T18:04:35;22.20;79.80
26964;DHT22;14521;48.148;-1.656;2023-08-06T18:07:58;22.10;79.70
26964;DHT22;14521;48.148;-1.656;2023-08-06T18:11:20;22.00;79.60
26964;DHT22;14521;48.148;-1.656;2023-08-06T18:14:43;22.00;80.30
26964;DHT22;14521;48.148;-1.656;2023-08-06T18:18:06;22.10;79.90
26964;DHT22;14521;48.148;-1.656;2023-08-06T18:21:28;22.10;79.70
26964;DHT22;14521;48.148;-1.656;2023-08-06T18:24:51;22.00;80.50
26964;DHT22;14521;48.148;-1.656;2023-08-06T18:28:13;22.30;80.50
26964;DHT22;14521;48.148;-1.656;2023-08-06T18:31:35;22.20;78.80
26964;DHT22;14521;48.148;-1.656;2023-08-06T18:34:58;22.00;78.40
26964;DHT22;14521;48.148;-1.656;2023-08-06T18:38:21;22.00;80.30
26964;DHT22;14521;48.148;-1.656;2023-08-06T18:41:48;21.80;79.70
26964;DHT22;14521;48.148;-1.656;2023-08-06T18:45:10;21.80;80.20
26964;DHT22;14521;48.148;-1.656;2023-08-06T18:48:33;21.80;81.00
26964;DHT22;14521;48.148;-1.656;2023-08-06T18:51:55;21.60;81.20
26964;DHT22;14521;48.148;-1.656;2023-08-06T18:55:18;21.80;82.10
26964;DHT22;14521;48.148;-1.656;2023-08-06T18:58:40;22.10;82.70
26964;DHT22;14521;48.148;-1.656;2023-08-06T19:02:02;22.30;84.00
26964;DHT22;14521;48.148;-1.656;2023-08-06T19:05:25;22.50;84.80
26964;DHT22;14521;48.148;-1.656;2023-08-06T19:08:48;22.60;85.70
26964;DHT22;14521;48.148;-1.656;2023-08-06T19:12:13;22.60;85.70
26964;DHT22;14521;48.148;-1.656;2023-08-06T19:15:37;22.70;85.80
26964;DHT22;14521;48.148;-1.656;2023-08-06T19:18:59;22.70;86.00
26964;DHT22;14521;48.148;-1.656;2023-08-06T19:22:21;22.80;86.00
26964;DHT22;14521;48.148;-1.656;2023-08-06T19:25:47;22.70;84.50
26964;DHT22;14521;48.148;-1.656;2023-08-06T19:29:11;22.70;82.20
26964;DHT22;14521;48.148;-1.656;2023-08-06T19:32:33;22.70;82.00
26964;DHT22;14521;48.148;-1.656;2023-08-06T19:35:56;22.70;82.10
26964;DHT22;14521;48.148;-1.656;2023-08-06T19:39:18;22.70;82.40
26964;DHT22;14521;48.148;-1.656;2023-08-06T19:42:40;22.70;82.10
26964;DHT22;14521;48.148;-1.656;2023-08-06T19:46:03;22.70;82.10
26964;DHT22;14521;48.148;-1.656;2023-08-06T19:49:26;22.70;82.40
26964;DHT22;14521;48.148;-1.656;2023-08-06T19:52:48;22.70;82.90
26964;DHT22;14521;48.148;-1.656;2023-08-06T19:56:10;22.70;83.60
26964;DHT22;14521;48.148;-1.656;2023-08-06T19:59:33;22.70;84.20
26964;DHT22;14521;48.148;-1.656;2023-08-06T20:02:55;22.70;84.50
26964;DHT22;14521;48.148;-1.656;2023-08-06T20:06:18;22.70;84.40
26964;DHT22;14521;48.148;-1.656;2023-08-06T20:09:40;22.70;84.80
26964;DHT22;14521;48.148;-1.656;2023-08-06T20:13:02;22.70;84.70
26964;DHT22;14521;48.148;-1.656;2023-08-06T20:16:25;22.80;85.00
26964;DHT22;14521;48.148;-1.656;2023-08-06T20:19:47;22.80;85.60
26964;DHT22;14521;48.148;-1.656;2023-08-06T20:23:10;22.80;85.50
26964;DHT22;14521;48.148;-1.656;2023-08-06T20:26:32;22.80;85.20
26964;DHT22;14521;48.148;-1.656;2023-08-06T20:29:54;22.80;85.20
26964;DHT22;14521;48.148;-1.656;2023-08-06T20:33:17;22.80;85.80
26964;DHT22;14521;48.148;-1.656;2023-08-06T20:36:39;22.90;85.60
26964;DHT22;14521;48.148;-1.656;2023-08-06T20:40:02;22.90;85.50
26964;DHT22;14521;48.148;-1.656;2023-08-06T20:43:24;22.90;85.90
26964;DHT22;14521;48.148;-1.656;2023-08-06T20:46:47;22.90;86.50
26964;DHT22;14521;48.148;-1.656;2023-08-06T20:50:09;22.90;87.30
26964;DHT22;14521;48.148;-1.656;2023-08-06T20:53:32;22.80;85.50
26964;DHT22;14521;48.148;-1.656;2023-08-06T20:56:54;22.90;84.70
26964;DHT22;14521;48.148;-1.656;2023-08-06T21:00:16;22.90;85.00
26964;DHT22;14521;48.148;-1.656;2023-08-06T21:03:39;22.90;85.30
26964;DHT22;14521;48.148;-1.656;2023-08-06T21:07:01;22.80;85.20